sensor_id;sensor_type;location;lat;lon;timestamp;pressure;altitude;pressure_sealevel;temperature;humidity
57859;BME280;49153;45.568;11.894;2022-11-12T00:00:55;103060.38;;;9.19;87.63
57859;BME280;49153;45.568;11.894;2022-11-12T00:03:20;103062.19;;;9.17;87.08
57859;BME280;49153;45.568;11.894;2022-11-12T00:05:46;103034.78;;;8.93;86.85
57859;BME280;49153;45.568;11.894;2022-11-12T00:08:13;103068.59;;;9.07;86.50
57859;BME280;49153;45.568;11.894;2022-11-12T00:10:39;103058.97;;;9.06;86.87
57859;BME280;49153;45.568;11.894;2022-11-12T00:13:04;103021.72;;;8.88;86.72
57859;BME280;49153;45.568;11.894;2022-11-12T00:15:30;103052.09;;;9.00;87.13
57859;BME280;49153;45.568;11.894;2022-11-12T00:17:55;103023.53;;;8.86;87.36
57859;BME280;49153;45.568;11.894;2022-11-12T00:20:21;103059.97;;;9.02;86.87
57859;BME280;49153;45.568;11.894;2022-11-12T00:22:46;103053.09;;;8.96;86.87
57859;BME280;49153;45.568;11.894;2022-11-12T00:25:12;103020.97;;;8.83;87.09
57859;BME280;49153;45.568;11.894;2022-11-12T00:27:37;103043.59;;;8.90;87.25
57859;BME280;49153;45.568;11.894;2022-11-12T00:30:03;103020.97;;;8.83;87.18
57859;BME280;49153;45.568;11.894;2022-11-12T00:32:29;103039.75;;;9.04;87.53
57859;BME280;49153;45.568;11.894;2022-11-12T00:34:54;103033.53;;;9.05;87.81
57859;BME280;49153;45.568;11.894;2022-11-12T00:37:20;103047.28;;;9.16;87.88
57859;BME280;49153;45.568;11.894;2022-11-12T00:39:47;103052.16;;;8.99;86.53
57859;BME280;49153;45.568;11.894;2022-11-12T00:42:13;103041.25;;;8.80;86.91
57859;BME280;49153;45.568;11.894;2022-11-12T00:44:38;103038.91;;;8.69;86.58
57859;BME280;49153;45.568;11.894;2022-11-12T00:47:03;103041.56;;;8.68;87.02
57859;BME280;49153;45.568;11.894;2022-11-12T00:49:29;103034.88;;;8.56;86.09
57859;BME280;49153;45.568;11.894;2022-11-12T00:51:55;103057.47;;;8.63;86.80
57859;BME280;49153;45.568;11.894;2022-11-12T00:54:20;103035.09;;;8.47;87.08
57859;BME280;49153;45.568;11.894;2022-11-12T00:56:47;103047.13;;;8.57;87.16
57859;BME280;49153;45.568;11.894;2022-11-12T00:59:13;103045.34;;;8.58;87.43
57859;BME280;49153;45.568;11.894;2022-11-12T01:01:39;103053.88;;;8.67;87.37
57859;BME280;49153;45.568;11.894;2022-11-12T01:04:06;103033.34;;;8.47;87.04
57859;BME280;49153;45.568;11.894;2022-11-12T01:06:31;103033.22;;;8.52;87.51
57859;BME280;49153;45.568;11.894;2022-11-12T01:08:57;103035.53;;;8.64;87.29
57859;BME280;49153;45.568;11.894;2022-11-12T01:11:25;103038.75;;;8.75;87.80
57859;BME280;49153;45.568;11.894;2022-11-12T01:13:57;103042.13;;;8.80;87.72
57859;BME280;49153;45.568;11.894;2022-11-12T01:16:26;103036.03;;;8.78;87.41
57859;BME280;49153;45.568;11.894;2022-11-12T01:18:54;103043.25;;;8.72;86.93
57859;BME280;49153;45.568;11.894;2022-11-12T01:21:20;103029.66;;;8.55;87.31
57859;BME280;49153;45.568;11.894;2022-11-12T01:23:46;103047.78;;;8.65;87.21
57859;BME280;49153;45.568;11.894;2022-11-12T01:26:14;103028.66;;;8.59;87.51
57859;BME280;49153;45.568;11.894;2022-11-12T01:28:41;103045.28;;;8.61;86.85
57859;BME280;49153;45.568;11.894;2022-11-12T01:31:17;103041.06;;;8.55;87.02
57859;BME280;49153;45.568;11.894;2022-11-12T01:33:46;103028.94;;;8.48;87.63
57859;BME280;49153;45.568;11.894;2022-11-12T01:36:13;103032.41;;;8.50;87.14
57859;BME280;49153;45.568;11.894;2022-11-12T01:38:40;103016.63;;;8.50;87.98
57859;BME280;49153;45.568;11.894;2022-11-12T01:41:08;103033.81;;;8.63;87.91
57859;BME280;49153;45.568;11.894;2022-11-12T01:43:34;103013.88;;;8.55;87.80
57859;BME280;49153;45.568;11.894;2022-11-12T01:46:02;103012.00;;;8.60;87.36
57859;BME280;49153;45.568;11.894;2022-11-12T01:48:41;102999.75;;;8.57;87.58
57859;BME280;49153;45.568;11.894;2022-11-12T01:51:10;102991.97;;;8.54;87.39
57859;BME280;49153;45.568;11.894;2022-11-12T01:53:41;103009.22;;;8.64;87.39
57859;BME280;49153;45.568;11.894;2022-11-12T01:56:09;102980.66;;;8.51;86.57
57859;BME280;49153;45.568;11.894;2022-11-12T01:58:36;102980.97;;;8.40;86.81
57859;BME280;49153;45.568;11.894;2022-11-12T02:01:02;102991.19;;;8.51;87.08
57859;BME280;49153;45.568;11.894;2022-11-12T02:03:28;102985.22;;;8.44;86.92
57859;BME280;49153;45.568;11.894;2022-11-12T02:05:57;102986.84;;;8.48;87.15
57859;BME280;49153;45.568;11.894;2022-11-12T02:08:24;102991.28;;;8.46;86.82
57859;BME280;49153;45.568;11.894;2022-11-12T02:10:51;102975.13;;;8.26;86.91
57859;BME280;49153;45.568;11.894;2022-11-12T02:13:17;102972.91;;;8.11;86.70
57859;BME280;49153;45.568;11.894;2022-11-12T02:16:02;102977.41;;;8.05;87.07
57859;BME280;49153;45.568;11.894;2022-11-12T02:18:28;102986.84;;;8.14;87.68
57859;BME280;49153;45.568;11.894;2022-11-12T02:20:58;102984.25;;;8.13;88.22
57859;BME280;49153;45.568;11.894;2022-11-12T02:23:27;102983.25;;;8.17;88.03
57859;BME280;49153;45.568;11.894;2022-11-12T02:25:53;102950.41;;;7.99;87.79
57859;BME280;49153;45.568;11.894;2022-11-12T02:28:19;102980.63;;;8.17;87.83
57859;BME280;49153;45.568;11.894;2022-11-12T02:30:47;102965.13;;;8.06;87.92
57859;BME280;49153;45.568;11.894;2022-11-12T02:33:13;102979.84;;;8.13;87.81
57859;BME280;49153;45.568;11.894;2022-11-12T02:35:38;102944.50;;;7.89;88.18
57859;BME280;49153;45.568;11.894;2022-11-12T02:38:05;102965.25;;;8.01;87.82
57859;BME280;49153;45.568;11.894;2022-11-12T02:40:30;102962.59;;;8.03;88.27
57859;BME280;49153;45.568;11.894;2022-11-12T02:42:56;102982.41;;;8.16;88.41
57859;BME280;49153;45.568;11.894;2022-11-12T02:45:21;102976.25;;;8.17;88.73
57859;BME280;49153;45.568;11.894;2022-11-12T02:47:47;102963.22;;;8.13;88.41
57859;BME280;49153;45.568;11.894;2022-11-12T02:50:12;102945.94;;;8.02;87.78
57859;BME280;49153;45.568;11.894;2022-11-12T02:52:38;102959.22;;;7.98;87.33
57859;BME280;49153;45.568;11.894;2022-11-12T02:55:08;102976.47;;;8.08;87.89
57859;BME280;49153;45.568;11.894;2022-11-12T02:57:34;102975.63;;;8.06;87.67
57859;BME280;49153;45.568;11.894;2022-11-12T02:59:59;102979.16;;;8.05;87.88
57859;BME280;49153;45.568;11.894;2022-11-12T03:02:25;102959.16;;;7.99;87.87
57859;BME280;49153;45.568;11.894;2022-11-12T03:04:50;102940.91;;;7.93;87.88
57859;BME280;49153;45.568;11.894;2022-11-12T03:07:16;102934.81;;;7.93;87.92
57859;BME280;49153;45.568;11.894;2022-11-12T03:09:41;102927.88;;;7.89;88.38
57859;BME280;49153;45.568;11.894;2022-11-12T03:12:07;102943.44;;;7.98;88.02
57859;BME280;49153;45.568;11.894;2022-11-12T03:14:32;102937.47;;;7.91;88.20
57859;BME280;49153;45.568;11.894;2022-11-12T03:16:57;102940.81;;;7.98;88.23
57859;BME280;49153;45.568;11.894;2022-11-12T03:19:23;102946.84;;;8.01;88.04
57859;BME280;49153;45.568;11.894;2022-11-12T03:21:48;102939.13;;;7.95;87.86
57859;BME280;49153;45.568;11.894;2022-11-12T03:24:14;102937.53;;;7.88;87.98
57859;BME280;49153;45.568;11.894;2022-11-12T03:26:39;102941.00;;;7.90;88.21
57859;BME280;49153;45.568;11.894;2022-11-12T03:29:04;102958.25;;;8.00;88.09
57859;BME280;49153;45.568;11.894;2022-11-12T03:31:30;102948.72;;;7.96;88.41
57859;BME280;49153;45.568;11.894;2022-11-12T03:33:55;102945.16;;;7.99;88.13
57859;BME280;49153;45.568;11.894;2022-11-12T03:36:21;102938.47;;;7.87;88.16
57859;BME280;49153;45.568;11.894;2022-11-12T03:38:46;102941.28;;;7.78;88.10
57859;BME280;49153;45.568;11.894;2022-11-12T03:41:11;102931.88;;;7.70;88.50
57859;BME280;49153;45.568;11.894;2022-11-12T03:43:37;102950.00;;;7.80;87.93
57859;BME280;49153;45.568;11.894;2022-11-12T03:46:02;102936.13;;;7.75;88.20
57859;BME280;49153;45.568;11.894;2022-11-12T03:48:28;102953.47;;;7.82;88.48
57859;BME280;49153;45.568;11.894;2022-11-12T03:50:57;102949.41;;;7.68;88.29
57859;BME280;49153;45.568;11.894;2022-11-12T03:53:24;102932.84;;;7.66;88.72
57859;BME280;49153;45.568;11.894;2022-11-12T03:55:49;102919.66;;;7.67;89.29
57859;BME280;49153;45.568;11.894;2022-11-12T03:58:15;102911.78;;;7.67;89.40
57859;BME280;49153;45.568;11.894;2022-11-12T04:00:40;102918.50;;;7.79;89.20
57859;BME280;49153;45.568;11.894;2022-11-12T04:03:06;102921.06;;;7.82;88.79
57859;BME280;49153;45.568;11.894;2022-11-12T04:05:31;102907.25;;;7.74;88.97
57859;BME280;49153;45.568;11.894;2022-11-12T04:08:20;102939.13;;;7.94;89.20
57859;BME280;49153;45.568;11.894;2022-11-12T04:11:03;102926.00;;;7.94;89.36
57859;BME280;49153;45.568;11.894;2022-11-12T04:13:29;102924.84;;;8.05;89.68
57859;BME280;49153;45.568;11.894;2022-11-12T04:16:03;102917.78;;;8.07;88.96
57859;BME280;49153;45.568;11.894;2022-11-12T04:18:49;102915.28;;;8.03;88.80
57859;BME280;49153;45.568;11.894;2022-11-12T04:21:37;102918.00;;;7.98;88.60
57859;BME280;49153;45.568;11.894;2022-11-12T04:24:36;102912.94;;;7.92;89.08
57859;BME280;49153;45.568;11.894;2022-11-12T04:27:24;102917.44;;;7.87;88.76
57859;BME280;49153;45.568;11.894;2022-11-12T04:29:50;102894.22;;;7.69;88.48
57859;BME280;49153;45.568;11.894;2022-11-12T04:32:37;102905.47;;;7.74;88.92
57859;BME280;49153;45.568;11.894;2022-11-12T04:35:06;102912.44;;;7.77;89.00
57859;BME280;49153;45.568;11.894;2022-11-12T04:37:33;102911.56;;;7.76;89.32
57859;BME280;49153;45.568;11.894;2022-11-12T04:40:13;102906.19;;;7.82;89.78
57859;BME280;49153;45.568;11.894;2022-11-12T04:42:58;102899.13;;;7.83;89.54
57859;BME280;49153;45.568;11.894;2022-11-12T04:45:44;102882.69;;;7.76;89.50
57859;BME280;49153;45.568;11.894;2022-11-12T04:48:09;102890.47;;;7.79;89.72
57859;BME280;49153;45.568;11.894;2022-11-12T04:50:35;102878.22;;;7.78;89.29
57859;BME280;49153;45.568;11.894;2022-11-12T04:53:01;102871.44;;;7.71;89.50
57859;BME280;49153;45.568;11.894;2022-11-12T04:55:26;102885.31;;;7.76;89.13
57859;BME280;49153;45.568;11.894;2022-11-12T04:57:52;102889.81;;;7.71;88.50
57859;BME280;49153;45.568;11.894;2022-11-12T05:00:17;102879.44;;;7.65;88.74
57859;BME280;49153;45.568;11.894;2022-11-12T05:02:42;102882.09;;;7.63;89.30
57859;BME280;49153;45.568;11.894;2022-11-12T05:05:08;102873.34;;;7.63;89.23
57859;BME280;49153;45.568;11.894;2022-11-12T05:07:33;102868.81;;;7.70;89.00
57859;BME280;49153;45.568;11.894;2022-11-12T05:09:59;102881.78;;;7.77;89.59
57859;BME280;49153;45.568;11.894;2022-11-12T05:12:24;102869.59;;;7.73;89.23
57859;BME280;49153;45.568;11.894;2022-11-12T05:14:50;102862.72;;;7.68;88.97
57859;BME280;49153;45.568;11.894;2022-11-12T05:17:15;102843.69;;;7.59;89.65
57859;BME280;49153;45.568;11.894;2022-11-12T05:19:40;102836.81;;;7.54;90.07
57859;BME280;49153;45.568;11.894;2022-11-12T05:22:07;102870.47;;;7.74;90.12
57859;BME280;49153;45.568;11.894;2022-11-12T05:24:39;102854.91;;;7.66;89.86
57859;BME280;49153;45.568;11.894;2022-11-12T05:29:34;102851.44;;;7.66;89.45
57859;BME280;49153;45.568;11.894;2022-11-12T05:31:59;102859.19;;;7.70;89.77
57859;BME280;49153;45.568;11.894;2022-11-12T05:34:25;102857.41;;;7.71;89.84
57859;BME280;49153;45.568;11.894;2022-11-12T05:36:50;102854.91;;;7.66;90.08
57859;BME280;49153;45.568;11.894;2022-11-12T05:39:16;102854.00;;;7.67;90.10
57859;BME280;49153;45.568;11.894;2022-11-12T05:41:41;102841.84;;;7.63;90.38
57859;BME280;49153;45.568;11.894;2022-11-12T05:44:07;102839.19;;;7.64;90.69
57859;BME280;49153;45.568;11.894;2022-11-12T05:46:32;102828.00;;;7.56;90.88
57859;BME280;49153;45.568;11.894;2022-11-12T05:48:57;102821.97;;;7.53;90.62
57859;BME280;49153;45.568;11.894;2022-11-12T05:51:23;102819.28;;;7.56;90.87
57859;BME280;49153;45.568;11.894;2022-11-12T05:53:48;102822.81;;;7.55;90.21
57859;BME280;49153;45.568;11.894;2022-11-12T05:56:14;102821.13;;;7.51;90.39
57859;BME280;49153;45.568;11.894;2022-11-12T05:58:39;102834.19;;;7.54;90.74
57859;BME280;49153;45.568;11.894;2022-11-12T06:01:04;102834.94;;;7.59;91.45
57859;BME280;49153;45.568;11.894;2022-11-12T06:03:30;102843.56;;;7.64;91.36
57859;BME280;49153;45.568;11.894;2022-11-12T06:05:56;102840.94;;;7.64;91.26
57859;BME280;49153;45.568;11.894;2022-11-12T06:08:21;102834.84;;;7.62;91.40
57859;BME280;49153;45.568;11.894;2022-11-12T06:10:51;102843.41;;;7.70;91.63
57859;BME280;49153;45.568;11.894;2022-11-12T06:13:18;102846.84;;;7.72;91.77
57859;BME280;49153;45.568;11.894;2022-11-12T06:15:44;102821.72;;;7.62;91.71
57859;BME280;49153;45.568;11.894;2022-11-12T06:18:09;102852.88;;;7.77;91.60
57859;BME280;49153;45.568;11.894;2022-11-12T06:20:35;102838.16;;;7.70;91.83
57859;BME280;49153;45.568;11.894;2022-11-12T06:23:01;102835.44;;;7.73;91.69
57859;BME280;49153;45.568;11.894;2022-11-12T06:25:27;102831.91;;;7.76;92.31
57859;BME280;49153;45.568;11.894;2022-11-12T06:27:52;102844.16;;;7.75;92.32
57859;BME280;49153;45.568;11.894;2022-11-12T06:30:18;102846.56;;;7.83;92.56
57859;BME280;49153;45.568;11.894;2022-11-12T06:32:48;102852.63;;;7.86;92.64
57859;BME280;49153;45.568;11.894;2022-11-12T06:35:14;102854.31;;;7.89;92.20
57859;BME280;49153;45.568;11.894;2022-11-12T06:37:40;102852.56;;;7.88;92.49
57859;BME280;49153;45.568;11.894;2022-11-12T06:40:06;102850.00;;;7.86;92.30
57859;BME280;49153;45.568;11.894;2022-11-12T06:42:32;102839.50;;;7.86;92.88
57859;BME280;49153;45.568;11.894;2022-11-12T06:44:57;102851.75;;;7.87;93.08
57859;BME280;49153;45.568;11.894;2022-11-12T06:47:23;102845.97;;;7.73;93.30
57859;BME280;49153;45.568;11.894;2022-11-12T06:49:48;102821.84;;;7.57;93.37
57859;BME280;49153;45.568;11.894;2022-11-12T06:52:14;102826.91;;;7.65;93.49
57859;BME280;49153;45.568;11.894;2022-11-12T06:54:40;102849.31;;;7.80;94.17
57859;BME280;49153;45.568;11.894;2022-11-12T06:57:06;102850.25;;;7.77;94.19
57859;BME280;49153;45.568;11.894;2022-11-12T06:59:31;102844.91;;;7.80;94.60
57859;BME280;49153;45.568;11.894;2022-11-12T07:01:56;102850.03;;;7.85;94.40
57859;BME280;49153;45.568;11.894;2022-11-12T07:04:25;102842.88;;;7.91;95.27
57859;BME280;49153;45.568;11.894;2022-11-12T07:06:50;102850.44;;;8.03;95.22
57859;BME280;49153;45.568;11.894;2022-11-12T07:09:16;102850.31;;;8.08;95.21
57859;BME280;49153;45.568;11.894;2022-11-12T07:11:41;102836.16;;;8.14;95.30
57859;BME280;49153;45.568;11.894;2022-11-12T07:14:07;102853.38;;;8.24;95.45
57859;BME280;49153;45.568;11.894;2022-11-12T07:16:33;102865.53;;;8.28;95.12
57859;BME280;49153;45.568;11.894;2022-11-12T07:18:59;102856.75;;;8.29;95.51
57859;BME280;49153;45.568;11.894;2022-11-12T07:21:24;102843.53;;;8.32;95.25
57859;BME280;49153;45.568;11.894;2022-11-12T07:23:50;102857.16;;;8.46;95.35
57859;BME280;49153;45.568;11.894;2022-11-12T07:26:21;102844.75;;;8.51;95.37
57859;BME280;49153;45.568;11.894;2022-11-12T07:28:48;102847.13;;;8.60;95.22
57859;BME280;49153;45.568;11.894;2022-11-12T07:31:15;102850.50;;;8.64;95.61
57859;BME280;49153;45.568;11.894;2022-11-12T07:33:42;102854.72;;;8.69;95.36
57859;BME280;49153;45.568;11.894;2022-11-12T07:36:18;102851.97;;;8.74;95.38
57859;BME280;49153;45.568;11.894;2022-11-12T07:38:44;102854.41;;;8.80;95.80
57859;BME280;49153;45.568;11.894;2022-11-12T07:43:41;102850.59;;;8.90;96.13
57859;BME280;49153;45.568;11.894;2022-11-12T07:46:26;102855.53;;;9.01;96.02
57859;BME280;49153;45.568;11.894;2022-11-12T07:48:52;102849.34;;;9.03;96.58
57859;BME280;49153;45.568;11.894;2022-11-12T07:51:26;102850.75;;;9.13;96.42
57859;BME280;49153;45.568;11.894;2022-11-12T07:53:53;102844.44;;;9.19;96.50
57859;BME280;49153;45.568;11.894;2022-11-12T07:56:20;102841.69;;;9.22;96.30
57859;BME280;49153;45.568;11.894;2022-11-12T07:58:46;102823.22;;;9.23;96.83
57859;BME280;49153;45.568;11.894;2022-11-12T08:03:46;102816.19;;;9.24;96.75
57859;BME280;49153;45.568;11.894;2022-11-12T08:06:11;102802.41;;;9.16;96.51
57859;BME280;49153;45.568;11.894;2022-11-12T08:08:37;102813.44;;;9.27;96.57
57859;BME280;49153;45.568;11.894;2022-11-12T08:11:02;102817.66;;;9.32;96.80
57859;BME280;49153;45.568;11.894;2022-11-12T08:13:28;102810.75;;;9.30;96.29
57859;BME280;49153;45.568;11.894;2022-11-12T08:15:56;102794.31;;;9.22;96.32
57859;BME280;49153;45.568;11.894;2022-11-12T08:18:22;102800.19;;;9.30;96.62
57859;BME280;49153;45.568;11.894;2022-11-12T08:20:47;102817.50;;;9.37;96.85
57859;BME280;49153;45.568;11.894;2022-11-12T08:23:12;102807.78;;;9.39;97.11
57859;BME280;49153;45.568;11.894;2022-11-12T08:25:38;102830.88;;;9.57;96.77
57859;BME280;49153;45.568;11.894;2022-11-12T08:28:03;102821.97;;;9.61;97.01
57859;BME280;49153;45.568;11.894;2022-11-12T08:30:29;102806.88;;;9.66;97.27
57859;BME280;49153;45.568;11.894;2022-11-12T08:32:58;102791.06;;;9.66;97.04
57859;BME280;49153;45.568;11.894;2022-11-12T08:35:26;102813.38;;;9.81;97.40
57859;BME280;49153;45.568;11.894;2022-11-12T08:38:03;102807.91;;;9.87;97.76
57859;BME280;49153;45.568;11.894;2022-11-12T08:40:31;102798.09;;;9.91;97.64
57859;BME280;49153;45.568;11.894;2022-11-12T08:42:58;102807.56;;;9.96;97.63
57859;BME280;49153;45.568;11.894;2022-11-12T08:45:25;102808.31;;;10.00;97.24
57859;BME280;49153;45.568;11.894;2022-11-12T08:47:51;102799.28;;;10.07;97.83
57859;BME280;49153;45.568;11.894;2022-11-12T08:50:17;102787.78;;;10.09;98.12
57859;BME280;49153;45.568;11.894;2022-11-12T08:52:42;102795.25;;;10.22;98.18
57859;BME280;49153;45.568;11.894;2022-11-12T08:55:08;102803.81;;;10.28;98.14
57859;BME280;49153;45.568;11.894;2022-11-12T08:57:39;102813.91;;;10.40;98.51
57859;BME280;49153;45.568;11.894;2022-11-12T09:00:05;102814.44;;;10.50;98.49
57859;BME280;49153;45.568;11.894;2022-11-12T09:02:31;102816.66;;;10.61;98.54
57859;BME280;49153;45.568;11.894;2022-11-12T09:04:56;102810.13;;;10.71;98.88
57859;BME280;49153;45.568;11.894;2022-11-12T09:07:22;102819.41;;;10.81;98.63
57859;BME280;49153;45.568;11.894;2022-11-12T09:09:47;102814.78;;;10.86;98.62
57859;BME280;49153;45.568;11.894;2022-11-12T09:12:12;102810.09;;;10.94;98.76
57859;BME280;49153;45.568;11.894;2022-11-12T09:14:43;102811.44;;;11.04;98.49
57859;BME280;49153;45.568;11.894;2022-11-12T09:17:08;102791.91;;;11.08;98.21
57859;BME280;49153;45.568;11.894;2022-11-12T09:19:33;102794.06;;;11.20;98.58
57859;BME280;49153;45.568;11.894;2022-11-12T09:21:59;102789.31;;;11.28;98.40
57859;BME280;49153;45.568;11.894;2022-11-12T09:24:24;102789.06;;;11.34;98.20
57859;BME280;49153;45.568;11.894;2022-11-12T09:26:52;102796.53;;;11.45;97.82
57859;BME280;49153;45.568;11.894;2022-11-12T09:29:17;102797.06;;;11.53;97.44
57859;BME280;49153;45.568;11.894;2022-11-12T09:31:43;102806.31;;;11.63;97.30
57859;BME280;49153;45.568;11.894;2022-11-12T09:34:09;102802.34;;;11.75;97.15
57859;BME280;49153;45.568;11.894;2022-11-12T09:36:34;102799.31;;;11.84;96.89
57859;BME280;49153;45.568;11.894;2022-11-12T09:38:59;102798.91;;;11.93;96.25
57859;BME280;49153;45.568;11.894;2022-11-12T09:41:39;102801.75;;;12.09;97.07
57859;BME280;49153;45.568;11.894;2022-11-12T09:44:22;102805.75;;;12.17;95.98
57859;BME280;49153;45.568;11.894;2022-11-12T09:46:59;102795.03;;;12.20;95.77
57859;BME280;49153;45.568;11.894;2022-11-12T09:49:32;102799.00;;;12.31;96.25
57859;BME280;49153;45.568;11.894;2022-11-12T09:52:13;102803.69;;;12.43;96.12
57859;BME280;49153;45.568;11.894;2022-11-12T09:54:41;102803.59;;;12.46;95.43
57859;BME280;49153;45.568;11.894;2022-11-12T09:57:13;102795.38;;;12.52;95.64
57859;BME280;49153;45.568;11.894;2022-11-12T09:59:40;102796.78;;;12.59;95.37
57859;BME280;49153;45.568;11.894;2022-11-12T10:05:11;102792.69;;;12.70;94.98
57859;BME280;49153;45.568;11.894;2022-11-12T10:10:57;102778.94;;;12.81;94.43
57859;BME280;49153;45.568;11.894;2022-11-12T10:13:48;102766.44;;;12.85;94.17
57859;BME280;49153;45.568;11.894;2022-11-12T10:16:24;102763.63;;;12.88;93.75
57859;BME280;49153;45.568;11.894;2022-11-12T10:21:51;102752.50;;;12.98;93.62
57859;BME280;49153;45.568;11.894;2022-11-12T10:24:20;102740.75;;;13.04;93.34
57859;BME280;49153;45.568;11.894;2022-11-12T10:26:47;102746.63;;;13.10;93.67
57859;BME280;49153;45.568;11.894;2022-11-12T10:29:30;102744.41;;;13.20;93.92
57859;BME280;49153;45.568;11.894;2022-11-12T10:32:02;102737.75;;;13.29;93.12
57859;BME280;49153;45.568;11.894;2022-11-12T10:34:28;102738.63;;;13.29;92.24
57859;BME280;49153;45.568;11.894;2022-11-12T10:37:24;102738.31;;;13.35;92.23
57859;BME280;49153;45.568;11.894;2022-11-12T10:39:52;102731.84;;;13.41;92.41
57859;BME280;49153;45.568;11.894;2022-11-12T10:42:19;102738.31;;;13.52;92.67
57859;BME280;49153;45.568;11.894;2022-11-12T10:44:46;102739.63;;;13.61;92.41
57859;BME280;49153;45.568;11.894;2022-11-12T10:47:22;102720.91;;;13.64;91.98
57859;BME280;49153;45.568;11.894;2022-11-12T10:53:10;102721.81;;;13.80;91.10
57859;BME280;49153;45.568;11.894;2022-11-12T10:55:44;102720.72;;;13.84;90.49
57859;BME280;49153;45.568;11.894;2022-11-12T10:58:18;102723.19;;;13.87;90.45
57859;BME280;49153;45.568;11.894;2022-11-12T11:01:05;102722.97;;;13.92;90.74
57859;BME280;49153;45.568;11.894;2022-11-12T11:03:44;102720.91;;;13.97;90.28
57859;BME280;49153;45.568;11.894;2022-11-12T11:11:17;102726.56;;;14.07;90.17
57859;BME280;49153;45.568;11.894;2022-11-12T11:13:44;102712.22;;;14.11;89.72
57859;BME280;49153;45.568;11.894;2022-11-12T11:16:14;102713.75;;;14.15;89.75
57859;BME280;49153;45.568;11.894;2022-11-12T11:18:41;102710.00;;;14.19;90.04
57859;BME280;49153;45.568;11.894;2022-11-12T11:27:25;102710.25;;;14.30;88.68
57859;BME280;49153;45.568;11.894;2022-11-12T11:38:15;102713.63;;;14.49;88.02
57859;BME280;49153;45.568;11.894;2022-11-12T11:49:33;102703.72;;;14.37;87.71
57859;BME280;49153;45.568;11.894;2022-11-12T11:58:30;102693.50;;;14.45;87.84
57859;BME280;49153;45.568;11.894;2022-11-12T12:00:24;102699.25;;;14.53;88.07
57859;BME280;49153;45.568;11.894;2022-11-12T12:08:35;102690.69;;;14.64;87.55
57859;BME280;49153;45.568;11.894;2022-11-12T12:21:59;102696.97;;;14.93;87.55
57859;BME280;49153;45.568;11.894;2022-11-12T12:24:32;102684.47;;;14.95;86.73
57859;BME280;49153;45.568;11.894;2022-11-12T12:27:23;102679.66;;;15.01;86.92
57859;BME280;49153;45.568;11.894;2022-11-12T12:30:08;102688.97;;;15.08;86.76
57859;BME280;49153;45.568;11.894;2022-11-12T12:32:58;102682.63;;;15.11;86.30
57859;BME280;49153;45.568;11.894;2022-11-12T12:35:32;102681.47;;;15.15;86.80
57859;BME280;49153;45.568;11.894;2022-11-12T12:38:43;102682.25;;;15.17;86.19
57859;BME280;49153;45.568;11.894;2022-11-12T12:41:41;102679.50;;;15.18;86.23
57859;BME280;49153;45.568;11.894;2022-11-12T12:44:09;102688.25;;;15.20;86.00
57859;BME280;49153;45.568;11.894;2022-11-12T12:46:43;102685.59;;;15.20;85.86
57859;BME280;49153;45.568;11.894;2022-11-12T12:49:14;102686.16;;;15.26;86.11
57859;BME280;49153;45.568;11.894;2022-11-12T12:51:40;102687.59;;;15.31;85.77
57859;BME280;49153;45.568;11.894;2022-11-12T12:56:59;102684.38;;;15.40;85.45
57859;BME280;49153;45.568;11.894;2022-11-12T12:59:25;102677.25;;;15.41;85.30
57859;BME280;49153;45.568;11.894;2022-11-12T13:01:59;102677.91;;;15.44;85.70
57859;BME280;49153;45.568;11.894;2022-11-12T13:04:53;102657.13;;;15.51;85.25
57859;BME280;49153;45.568;11.894;2022-11-12T13:07:37;102663.91;;;15.56;85.21
57859;BME280;49153;45.568;11.894;2022-11-12T13:15:46;102651.00;;;15.65;83.86
57859;BME280;49153;45.568;11.894;2022-11-12T13:21:14;102645.84;;;15.76;84.70
57859;BME280;49153;45.568;11.894;2022-11-12T13:23:51;102648.06;;;15.83;83.81
57859;BME280;49153;45.568;11.894;2022-11-12T13:49:01;102651.00;;;16.07;83.58
57859;BME280;49153;45.568;11.894;2022-11-12T13:53:56;102645.38;;;16.12;82.74
57859;BME280;49153;45.568;11.894;2022-11-12T13:56:33;102648.88;;;16.12;82.76
57859;BME280;49153;45.568;11.894;2022-11-12T13:59:20;102644.13;;;16.03;82.22
57859;BME280;49153;45.568;11.894;2022-11-12T14:01:48;102639.78;;;16.02;82.89
57859;BME280;49153;45.568;11.894;2022-11-12T14:04:16;102642.63;;;15.99;83.06
57859;BME280;49153;45.568;11.894;2022-11-12T14:06:53;102639.19;;;15.97;82.68
57859;BME280;49153;45.568;11.894;2022-11-12T14:10:24;102638.25;;;15.98;83.18
57859;BME280;49153;45.568;11.894;2022-11-12T14:20:37;102634.47;;;15.74;83.00
57859;BME280;49153;45.568;11.894;2022-11-12T14:23:15;102630.47;;;15.67;82.92
57859;BME280;49153;45.568;11.894;2022-11-12T14:28:27;102625.53;;;15.60;82.89
57859;BME280;49153;45.568;11.894;2022-11-12T14:30:54;102628.97;;;15.62;82.88
57859;BME280;49153;45.568;11.894;2022-11-12T14:33:22;102628.00;;;15.63;83.12
57859;BME280;49153;45.568;11.894;2022-11-12T14:35:49;102633.34;;;15.63;83.12
57859;BME280;49153;45.568;11.894;2022-11-12T14:41:06;102621.19;;;15.59;83.30
57859;BME280;49153;45.568;11.894;2022-11-12T14:46:04;102606.25;;;15.57;83.28
57859;BME280;49153;45.568;11.894;2022-11-12T14:48:58;102606.25;;;15.57;83.43
57859;BME280;49153;45.568;11.894;2022-11-12T14:51:26;102612.00;;;15.49;83.68
57859;BME280;49153;45.568;11.894;2022-11-12T14:54:02;102602.88;;;15.39;83.61
57859;BME280;49153;45.568;11.894;2022-11-12T14:56:39;102593.38;;;15.35;84.02
57859;BME280;49153;45.568;11.894;2022-11-12T14:59:09;102597.09;;;15.33;83.63
57859;BME280;49153;45.568;11.894;2022-11-12T15:01:38;102594.41;;;15.18;83.34